sensor_id;sensor_type;location;lat;lon;timestamp;P1;durP1;ratioP1;P2;durP2;ratioP2
8986;SDS011;4529;51.360;12.474;2024-02-21T00:00:11;8.90;;;2.53;;
8986;SDS011;4529;51.360;12.474;2024-02-21T00:05:15;11.37;;;2.87;;
8986;SDS011;4529;51.360;12.474;2024-02-21T00:10:18;5.03;;;2.47;;
8986;SDS011;4529;51.360;12.474;2024-02-21T00:15:22;4.63;;;2.57;;
8986;SDS011;4529;51.360;12.474;2024-02-21T00:20:25;6.23;;;2.90;;
8986;SDS011;4529;51.360;12.474;2024-02-21T00:25:29;6.93;;;3.07;;
8986;SDS011;4529;51.360;12.474;2024-02-21T00:30:32;6.97;;;2.90;;
8986;SDS011;4529;51.360;12.474;2024-02-21T00:35:35;8.47;;;2.83;;
8986;SDS011;4529;51.360;12.474;2024-02-21T00:40:39;6.63;;;2.47;;
8986;SDS011;4529;51.360;12.474;2024-02-21T00:45:43;8.87;;;2.80;;
8986;SDS011;4529;51.360;12.474;2024-02-21T00:50:47;7.27;;;2.80;;
8986;SDS011;4529;51.360;12.474;2024-02-21T00:55:51;8.30;;;2.60;;
8986;SDS011;4529;51.360;12.474;2024-02-21T01:00:55;8.30;;;3.10;;
8986;SDS011;4529;51.360;12.474;2024-02-21T01:05:59;5.97;;;2.83;;
8986;SDS011;4529;51.360;12.474;2024-02-21T01:11:03;5.23;;;2.90;;
8986;SDS011;4529;51.360;12.474;2024-02-21T01:16:06;6.23;;;2.73;;
8986;SDS011;4529;51.360;12.474;2024-02-21T01:21:12;6.67;;;2.70;;
8986;SDS011;4529;51.360;12.474;2024-02-21T01:26:16;8.87;;;2.83;;
8986;SDS011;4529;51.360;12.474;2024-02-21T01:31:19;7.13;;;2.87;;
8986;SDS011;4529;51.360;12.474;2024-02-21T01:36:23;7.87;;;3.40;;
8986;SDS011;4529;51.360;12.474;2024-02-21T01:41:29;10.87;;;2.80;;
8986;SDS011;4529;51.360;12.474;2024-02-21T01:46:34;5.20;;;2.50;;
8986;SDS011;4529;51.360;12.474;2024-02-21T01:51:41;7.87;;;2.87;;
8986;SDS011;4529;51.360;12.474;2024-02-21T01:56:45;7.57;;;3.27;;
8986;SDS011;4529;51.360;12.474;2024-02-21T02:01:48;6.50;;;2.93;;
8986;SDS011;4529;51.360;12.474;2024-02-21T02:06:52;5.93;;;2.97;;
8986;SDS011;4529;51.360;12.474;2024-02-21T02:11:55;6.17;;;2.83;;
8986;SDS011;4529;51.360;12.474;2024-02-21T02:16:59;5.33;;;2.83;;
8986;SDS011;4529;51.360;12.474;2024-02-21T02:22:06;7.70;;;2.90;;
8986;SDS011;4529;51.360;12.474;2024-02-21T02:27:05;11.17;;;3.27;;
8986;SDS011;4529;51.360;12.474;2024-02-21T02:32:09;7.40;;;3.03;;
8986;SDS011;4529;51.360;12.474;2024-02-21T02:37:13;8.03;;;2.90;;
8986;SDS011;4529;51.360;12.474;2024-02-21T02:42:17;6.77;;;2.90;;
8986;SDS011;4529;51.360;12.474;2024-02-21T02:47:21;8.93;;;3.10;;
8986;SDS011;4529;51.360;12.474;2024-02-21T02:52:25;8.10;;;2.93;;
8986;SDS011;4529;51.360;12.474;2024-02-21T02:57:28;7.07;;;2.90;;
8986;SDS011;4529;51.360;12.474;2024-02-21T03:02:32;7.87;;;3.17;;
8986;SDS011;4529;51.360;12.474;2024-02-21T03:07:35;9.43;;;2.90;;
8986;SDS011;4529;51.360;12.474;2024-02-21T03:12:39;6.90;;;2.87;;
8986;SDS011;4529;51.360;12.474;2024-02-21T03:17:42;7.83;;;3.00;;
8986;SDS011;4529;51.360;12.474;2024-02-21T03:22:46;6.70;;;2.90;;
8986;SDS011;4529;51.360;12.474;2024-02-21T03:27:50;7.97;;;2.97;;
8986;SDS011;4529;51.360;12.474;2024-02-21T03:32:53;9.03;;;2.90;;
8986;SDS011;4529;51.360;12.474;2024-02-21T03:37:57;6.30;;;2.97;;
8986;SDS011;4529;51.360;12.474;2024-02-21T03:43:01;5.47;;;2.70;;
8986;SDS011;4529;51.360;12.474;2024-02-21T03:48:04;9.47;;;2.60;;
8986;SDS011;4529;51.360;12.474;2024-02-21T03:53:08;6.17;;;2.63;;
8986;SDS011;4529;51.360;12.474;2024-02-21T03:58:12;8.10;;;2.90;;
8986;SDS011;4529;51.360;12.474;2024-02-21T04:03:15;6.17;;;2.73;;
8986;SDS011;4529;51.360;12.474;2024-02-21T04:08:19;6.63;;;2.80;;
8986;SDS011;4529;51.360;12.474;2024-02-21T04:13:22;4.87;;;2.60;;
8986;SDS011;4529;51.360;12.474;2024-02-21T04:18:26;6.80;;;3.00;;
8986;SDS011;4529;51.360;12.474;2024-02-21T04:23:31;5.80;;;2.70;;
8986;SDS011;4529;51.360;12.474;2024-02-21T04:28:35;5.37;;;2.60;;
8986;SDS011;4529;51.360;12.474;2024-02-21T04:33:39;5.10;;;2.87;;
8986;SDS011;4529;51.360;12.474;2024-02-21T04:38:43;6.83;;;2.80;;
8986;SDS011;4529;51.360;12.474;2024-02-21T04:43:47;6.20;;;2.90;;
8986;SDS011;4529;51.360;12.474;2024-02-21T04:48:51;4.27;;;2.90;;
8986;SDS011;4529;51.360;12.474;2024-02-21T04:53:55;9.07;;;2.83;;
8986;SDS011;4529;51.360;12.474;2024-02-21T04:58:59;6.80;;;3.20;;
8986;SDS011;4529;51.360;12.474;2024-02-21T05:04:04;8.23;;;3.03;;
8986;SDS011;4529;51.360;12.474;2024-02-21T05:09:07;8.57;;;3.27;;
8986;SDS011;4529;51.360;12.474;2024-02-21T05:14:10;7.47;;;3.30;;
8986;SDS011;4529;51.360;12.474;2024-02-21T05:19:17;6.63;;;3.17;;
8986;SDS011;4529;51.360;12.474;2024-02-21T05:24:20;8.67;;;3.37;;
8986;SDS011;4529;51.360;12.474;2024-02-21T05:29:24;10.23;;;3.40;;
8986;SDS011;4529;51.360;12.474;2024-02-21T05:34:27;7.20;;;3.20;;
8986;SDS011;4529;51.360;12.474;2024-02-21T05:39:31;4.43;;;3.07;;
8986;SDS011;4529;51.360;12.474;2024-02-21T05:44:34;7.30;;;3.10;;
8986;SDS011;4529;51.360;12.474;2024-02-21T05:49:39;6.43;;;3.10;;
8986;SDS011;4529;51.360;12.474;2024-02-21T05:54:42;8.37;;;3.10;;
8986;SDS011;4529;51.360;12.474;2024-02-21T05:59:45;5.03;;;2.50;;
8986;SDS011;4529;51.360;12.474;2024-02-21T06:04:49;4.83;;;2.90;;
8986;SDS011;4529;51.360;12.474;2024-02-21T06:09:52;6.33;;;3.37;;
8986;SDS011;4529;51.360;12.474;2024-02-21T06:14:56;7.87;;;3.03;;
8986;SDS011;4529;51.360;12.474;2024-02-21T06:19:59;7.60;;;2.90;;
8986;SDS011;4529;51.360;12.474;2024-02-21T06:25:03;5.60;;;3.10;;
8986;SDS011;4529;51.360;12.474;2024-02-21T06:30:06;6.00;;;3.10;;
8986;SDS011;4529;51.360;12.474;2024-02-21T06:35:10;8.20;;;3.33;;
8986;SDS011;4529;51.360;12.474;2024-02-21T06:40:14;8.13;;;3.07;;
8986;SDS011;4529;51.360;12.474;2024-02-21T06:45:19;7.03;;;3.33;;
8986;SDS011;4529;51.360;12.474;2024-02-21T06:50:23;8.63;;;3.00;;
8986;SDS011;4529;51.360;12.474;2024-02-21T06:55:26;6.63;;;3.07;;
8986;SDS011;4529;51.360;12.474;2024-02-21T07:00:30;9.27;;;3.03;;
8986;SDS011;4529;51.360;12.474;2024-02-21T07:05:33;6.13;;;3.40;;
8986;SDS011;4529;51.360;12.474;2024-02-21T07:10:37;7.80;;;3.17;;
8986;SDS011;4529;51.360;12.474;2024-02-21T07:15:40;5.23;;;3.30;;
8986;SDS011;4529;51.360;12.474;2024-02-21T07:20:44;7.00;;;3.27;;
8986;SDS011;4529;51.360;12.474;2024-02-21T07:25:48;6.33;;;3.73;;
8986;SDS011;4529;51.360;12.474;2024-02-21T07:30:52;9.57;;;3.97;;
8986;SDS011;4529;51.360;12.474;2024-02-21T07:35:57;6.17;;;3.93;;
8986;SDS011;4529;51.360;12.474;2024-02-21T07:41:01;7.50;;;4.50;;
8986;SDS011;4529;51.360;12.474;2024-02-21T07:46:05;8.90;;;4.30;;
8986;SDS011;4529;51.360;12.474;2024-02-21T07:51:09;6.13;;;4.27;;
8986;SDS011;4529;51.360;12.474;2024-02-21T07:56:16;7.63;;;4.33;;
8986;SDS011;4529;51.360;12.474;2024-02-21T08:01:19;6.30;;;3.40;;
8986;SDS011;4529;51.360;12.474;2024-02-21T08:06:23;4.20;;;3.10;;
8986;SDS011;4529;51.360;12.474;2024-02-21T08:11:27;5.70;;;3.30;;
8986;SDS011;4529;51.360;12.474;2024-02-21T08:16:31;6.13;;;3.60;;
8986;SDS011;4529;51.360;12.474;2024-02-21T08:21:35;5.40;;;3.13;;
8986;SDS011;4529;51.360;12.474;2024-02-21T08:26:42;4.53;;;2.97;;
8986;SDS011;4529;51.360;12.474;2024-02-21T08:31:46;7.30;;;4.27;;
8986;SDS011;4529;51.360;12.474;2024-02-21T08:36:49;8.47;;;4.33;;
8986;SDS011;4529;51.360;12.474;2024-02-21T08:41:52;7.83;;;4.47;;
8986;SDS011;4529;51.360;12.474;2024-02-21T08:46:56;5.53;;;3.87;;
8986;SDS011;4529;51.360;12.474;2024-02-21T08:51:59;5.63;;;3.67;;
8986;SDS011;4529;51.360;12.474;2024-02-21T08:57:04;10.10;;;4.20;;
8986;SDS011;4529;51.360;12.474;2024-02-21T09:02:08;5.03;;;3.80;;
8986;SDS011;4529;51.360;12.474;2024-02-21T09:07:11;8.13;;;3.80;;
8986;SDS011;4529;51.360;12.474;2024-02-21T09:12:15;9.23;;;3.93;;
8986;SDS011;4529;51.360;12.474;2024-02-21T09:17:18;6.77;;;4.10;;
8986;SDS011;4529;51.360;12.474;2024-02-21T09:22:22;6.13;;;3.73;;
8986;SDS011;4529;51.360;12.474;2024-02-21T09:27:26;6.73;;;4.03;;
8986;SDS011;4529;51.360;12.474;2024-02-21T09:32:30;8.03;;;3.97;;
8986;SDS011;4529;51.360;12.474;2024-02-21T09:37:35;7.47;;;3.97;;
8986;SDS011;4529;51.360;12.474;2024-02-21T09:42:39;6.87;;;4.07;;
8986;SDS011;4529;51.360;12.474;2024-02-21T09:47:50;10.23;;;4.00;;
8986;SDS011;4529;51.360;12.474;2024-02-21T09:53:23;9.10;;;4.37;;
8986;SDS011;4529;51.360;12.474;2024-02-21T09:58:26;12.27;;;4.17;;
8986;SDS011;4529;51.360;12.474;2024-02-21T10:03:29;9.47;;;4.13;;
8986;SDS011;4529;51.360;12.474;2024-02-21T10:08:33;9.30;;;4.07;;
8986;SDS011;4529;51.360;12.474;2024-02-21T10:13:37;9.73;;;4.37;;
8986;SDS011;4529;51.360;12.474;2024-02-21T10:18:42;8.30;;;4.77;;
8986;SDS011;4529;51.360;12.474;2024-02-21T10:23:46;7.93;;;4.40;;
8986;SDS011;4529;51.360;12.474;2024-02-21T10:28:50;9.43;;;4.40;;
8986;SDS011;4529;51.360;12.474;2024-02-21T10:33:54;9.17;;;4.63;;
8986;SDS011;4529;51.360;12.474;2024-02-21T10:38:59;7.73;;;4.20;;
8986;SDS011;4529;51.360;12.474;2024-02-21T10:44:04;8.93;;;4.33;;
8986;SDS011;4529;51.360;12.474;2024-02-21T10:49:10;7.20;;;3.90;;
8986;SDS011;4529;51.360;12.474;2024-02-21T10:54:18;9.53;;;4.10;;
8986;SDS011;4529;51.360;12.474;2024-02-21T10:59:38;4.83;;;3.60;;
8986;SDS011;4529;51.360;12.474;2024-02-21T11:04:42;7.73;;;3.37;;
8986;SDS011;4529;51.360;12.474;2024-02-21T11:09:52;5.77;;;3.60;;
8986;SDS011;4529;51.360;12.474;2024-02-21T11:15:08;7.13;;;3.70;;
8986;SDS011;4529;51.360;12.474;2024-02-21T11:20:13;8.63;;;3.43;;
8986;SDS011;4529;51.360;12.474;2024-02-21T11:25:21;5.00;;;3.30;;
8986;SDS011;4529;51.360;12.474;2024-02-21T11:30:19;6.20;;;3.63;;
8986;SDS011;4529;51.360;12.474;2024-02-21T11:35:23;5.57;;;3.23;;
8986;SDS011;4529;51.360;12.474;2024-02-21T11:40:28;6.90;;;3.40;;
8986;SDS011;4529;51.360;12.474;2024-02-21T11:45:32;6.70;;;3.43;;
8986;SDS011;4529;51.360;12.474;2024-02-21T11:50:36;5.00;;;3.40;;
8986;SDS011;4529;51.360;12.474;2024-02-21T11:55:40;4.53;;;3.17;;
8986;SDS011;4529;51.360;12.474;2024-02-21T12:00:44;6.27;;;2.90;;
8986;SDS011;4529;51.360;12.474;2024-02-21T12:05:48;3.77;;;2.87;;
8986;SDS011;4529;51.360;12.474;2024-02-21T12:10:51;2.57;;;2.37;;
8986;SDS011;4529;51.360;12.474;2024-02-21T12:15:55;4.70;;;2.50;;
8986;SDS011;4529;51.360;12.474;2024-02-21T12:20:58;2.40;;;2.10;;
8986;SDS011;4529;51.360;12.474;2024-02-21T12:26:01;2.43;;;2.03;;
8986;SDS011;4529;51.360;12.474;2024-02-21T12:31:05;3.10;;;2.40;;
8986;SDS011;4529;51.360;12.474;2024-02-21T12:36:08;2.60;;;2.40;;
8986;SDS011;4529;51.360;12.474;2024-02-21T12:41:12;3.20;;;2.30;;
8986;SDS011;4529;51.360;12.474;2024-02-21T12:46:15;4.13;;;2.43;;
8986;SDS011;4529;51.360;12.474;2024-02-21T12:51:19;3.90;;;2.70;;
8986;SDS011;4529;51.360;12.474;2024-02-21T12:56:22;2.67;;;2.47;;
8986;SDS011;4529;51.360;12.474;2024-02-21T13:01:26;2.80;;;2.23;;
8986;SDS011;4529;51.360;12.474;2024-02-21T13:06:30;4.27;;;2.77;;
8986;SDS011;4529;51.360;12.474;2024-02-21T13:11:35;3.90;;;2.70;;
8986;SDS011;4529;51.360;12.474;2024-02-21T13:16:38;2.87;;;2.43;;
8986;SDS011;4529;51.360;12.474;2024-02-21T13:21:41;3.47;;;2.37;;
8986;SDS011;4529;51.360;12.474;2024-02-21T13:26:45;4.33;;;2.50;;
8986;SDS011;4529;51.360;12.474;2024-02-21T13:31:48;2.87;;;2.50;;
8986;SDS011;4529;51.360;12.474;2024-02-21T13:36:52;2.90;;;2.50;;
8986;SDS011;4529;51.360;12.474;2024-02-21T13:41:55;5.93;;;2.60;;
8986;SDS011;4529;51.360;12.474;2024-02-21T13:47:00;4.23;;;2.40;;
8986;SDS011;4529;51.360;12.474;2024-02-21T13:52:04;4.40;;;2.47;;
8986;SDS011;4529;51.360;12.474;2024-02-21T13:57:08;3.50;;;2.40;;
8986;SDS011;4529;51.360;12.474;2024-02-21T14:02:12;5.60;;;2.30;;
8986;SDS011;4529;51.360;12.474;2024-02-21T14:07:16;3.63;;;2.33;;
8986;SDS011;4529;51.360;12.474;2024-02-21T14:12:20;3.47;;;2.23;;
8986;SDS011;4529;51.360;12.474;2024-02-21T14:17:23;2.37;;;2.17;;
8986;SDS011;4529;51.360;12.474;2024-02-21T14:22:26;2.43;;;2.17;;
8986;SDS011;4529;51.360;12.474;2024-02-21T14:27:30;3.60;;;2.40;;
8986;SDS011;4529;51.360;12.474;2024-02-21T14:32:33;3.67;;;2.60;;
8986;SDS011;4529;51.360;12.474;2024-02-21T14:37:37;4.23;;;2.50;;
8986;SDS011;4529;51.360;12.474;2024-02-21T14:42:41;4.60;;;2.43;;
8986;SDS011;4529;51.360;12.474;2024-02-21T14:47:44;4.53;;;2.67;;
8986;SDS011;4529;51.360;12.474;2024-02-21T14:52:48;2.20;;;2.00;;
8986;SDS011;4529;51.360;12.474;2024-02-21T14:57:51;5.40;;;2.50;;
8986;SDS011;4529;51.360;12.474;2024-02-21T15:02:56;3.27;;;2.07;;
8986;SDS011;4529;51.360;12.474;2024-02-21T15:07:58;4.87;;;2.20;;
8986;SDS011;4529;51.360;12.474;2024-02-21T15:13:02;3.63;;;2.20;;
8986;SDS011;4529;51.360;12.474;2024-02-21T15:18:05;2.87;;;1.93;;
8986;SDS011;4529;51.360;12.474;2024-02-21T15:23:09;4.53;;;2.20;;
8986;SDS011;4529;51.360;12.474;2024-02-21T15:28:12;5.53;;;2.23;;
8986;SDS011;4529;51.360;12.474;2024-02-21T15:33:16;3.60;;;2.27;;
8986;SDS011;4529;51.360;12.474;2024-02-21T15:38:19;4.47;;;2.60;;
8986;SDS011;4529;51.360;12.474;2024-02-21T15:43:23;4.33;;;2.20;;
8986;SDS011;4529;51.360;12.474;2024-02-21T15:48:26;3.90;;;2.47;;
8986;SDS011;4529;51.360;12.474;2024-02-21T15:53:29;5.67;;;2.50;;
8986;SDS011;4529;51.360;12.474;2024-02-21T15:58:33;3.70;;;2.40;;
8986;SDS011;4529;51.360;12.474;2024-02-21T16:03:37;5.30;;;2.67;;
8986;SDS011;4529;51.360;12.474;2024-02-21T16:08:40;3.60;;;2.90;;
8986;SDS011;4529;51.360;12.474;2024-02-21T16:13:44;5.23;;;2.83;;
8986;SDS011;4529;51.360;12.474;2024-02-21T16:18:47;2.57;;;2.30;;
8986;SDS011;4529;51.360;12.474;2024-02-21T16:23:51;4.70;;;2.63;;
8986;SDS011;4529;51.360;12.474;2024-02-21T16:28:54;3.57;;;2.33;;
8986;SDS011;4529;51.360;12.474;2024-02-21T16:33:58;3.33;;;2.10;;
8986;SDS011;4529;51.360;12.474;2024-02-21T16:39:01;4.73;;;2.40;;
8986;SDS011;4529;51.360;12.474;2024-02-21T16:44:05;4.20;;;2.30;;
8986;SDS011;4529;51.360;12.474;2024-02-21T16:49:08;4.90;;;2.00;;
8986;SDS011;4529;51.360;12.474;2024-02-21T16:54:12;3.30;;;2.30;;
8986;SDS011;4529;51.360;12.474;2024-02-21T16:59:15;3.27;;;1.93;;
8986;SDS011;4529;51.360;12.474;2024-02-21T17:04:19;4.33;;;2.07;;
8986;SDS011;4529;51.360;12.474;2024-02-21T17:09:22;5.43;;;2.20;;
8986;SDS011;4529;51.360;12.474;2024-02-21T17:14:25;2.40;;;2.10;;
8986;SDS011;4529;51.360;12.474;2024-02-21T17:19:29;8.77;;;2.40;;
8986;SDS011;4529;51.360;12.474;2024-02-21T17:24:33;2.33;;;2.00;;
8986;SDS011;4529;51.360;12.474;2024-02-21T17:29:38;5.00;;;2.50;;
8986;SDS011;4529;51.360;12.474;2024-02-21T17:34:41;3.23;;;2.13;;
8986;SDS011;4529;51.360;12.474;2024-02-21T17:39:44;2.47;;;1.90;;
8986;SDS011;4529;51.360;12.474;2024-02-21T17:44:48;2.50;;;2.07;;
8986;SDS011;4529;51.360;12.474;2024-02-21T17:49:51;3.03;;;2.20;;
8986;SDS011;4529;51.360;12.474;2024-02-21T17:54:55;4.70;;;1.97;;
8986;SDS011;4529;51.360;12.474;2024-02-21T17:59:58;4.77;;;2.13;;
8986;SDS011;4529;51.360;12.474;2024-02-21T18:05:02;4.50;;;2.13;;
8986;SDS011;4529;51.360;12.474;2024-02-21T18:10:05;3.73;;;1.90;;
8986;SDS011;4529;51.360;12.474;2024-02-21T18:15:09;3.40;;;2.07;;
8986;SDS011;4529;51.360;12.474;2024-02-21T18:20:13;6.33;;;2.27;;
8986;SDS011;4529;51.360;12.474;2024-02-21T18:25:16;4.90;;;2.40;;
8986;SDS011;4529;51.360;12.474;2024-02-21T18:30:20;3.30;;;2.20;;
8986;SDS011;4529;51.360;12.474;2024-02-21T18:35:23;4.97;;;2.33;;
8986;SDS011;4529;51.360;12.474;2024-02-21T18:40:27;3.13;;;2.23;;
8986;SDS011;4529;51.360;12.474;2024-02-21T18:45:30;2.90;;;1.80;;
8986;SDS011;4529;51.360;12.474;2024-02-21T18:50:34;3.63;;;1.80;;
8986;SDS011;4529;51.360;12.474;2024-02-21T18:55:37;3.97;;;1.80;;
8986;SDS011;4529;51.360;12.474;2024-02-21T19:00:41;5.13;;;2.10;;
8986;SDS011;4529;51.360;12.474;2024-02-21T19:05:44;3.43;;;1.80;;
8986;SDS011;4529;51.360;12.474;2024-02-21T19:10:48;5.07;;;2.20;;
8986;SDS011;4529;51.360;12.474;2024-02-21T19:15:51;3.60;;;2.17;;
8986;SDS011;4529;51.360;12.474;2024-02-21T19:20:55;7.47;;;2.10;;
8986;SDS011;4529;51.360;12.474;2024-02-21T19:25:58;4.07;;;2.00;;
8986;SDS011;4529;51.360;12.474;2024-02-21T19:31:02;2.93;;;1.80;;
8986;SDS011;4529;51.360;12.474;2024-02-21T19:36:06;3.10;;;2.10;;
8986;SDS011;4529;51.360;12.474;2024-02-21T19:41:10;5.07;;;1.90;;
8986;SDS011;4529;51.360;12.474;2024-02-21T19:46:14;4.77;;;1.90;;
8986;SDS011;4529;51.360;12.474;2024-02-21T19:51:18;3.23;;;2.00;;
8986;SDS011;4529;51.360;12.474;2024-02-21T19:56:22;4.33;;;2.20;;
8986;SDS011;4529;51.360;12.474;2024-02-21T20:01:26;3.77;;;2.20;;
8986;SDS011;4529;51.360;12.474;2024-02-21T20:06:30;3.03;;;2.10;;
8986;SDS011;4529;51.360;12.474;2024-02-21T20:11:35;4.43;;;2.00;;
8986;SDS011;4529;51.360;12.474;2024-02-21T20:16:39;4.10;;;2.00;;
8986;SDS011;4529;51.360;12.474;2024-02-21T20:21:43;3.40;;;2.20;;
8986;SDS011;4529;51.360;12.474;2024-02-21T20:26:47;3.70;;;2.07;;
8986;SDS011;4529;51.360;12.474;2024-02-21T20:31:51;4.30;;;2.03;;
8986;SDS011;4529;51.360;12.474;2024-02-21T20:36:55;2.87;;;1.80;;
8986;SDS011;4529;51.360;12.474;2024-02-21T20:42:00;4.17;;;1.90;;
8986;SDS011;4529;51.360;12.474;2024-02-21T20:47:04;3.10;;;1.90;;
8986;SDS011;4529;51.360;12.474;2024-02-21T20:52:07;3.63;;;2.10;;
8986;SDS011;4529;51.360;12.474;2024-02-21T20:57:10;5.43;;;1.90;;
8986;SDS011;4529;51.360;12.474;2024-02-21T21:02:14;3.67;;;1.70;;
8986;SDS011;4529;51.360;12.474;2024-02-21T21:07:19;2.93;;;1.80;;
8986;SDS011;4529;51.360;12.474;2024-02-21T21:12:21;3.37;;;1.70;;
8986;SDS011;4529;51.360;12.474;2024-02-21T21:17:24;3.47;;;1.57;;
8986;SDS011;4529;51.360;12.474;2024-02-21T21:22:28;1.83;;;1.70;;
8986;SDS011;4529;51.360;12.474;2024-02-21T21:27:31;5.00;;;2.10;;
8986;SDS011;4529;51.360;12.474;2024-02-21T21:32:35;1.40;;;1.30;;
8986;SDS011;4529;51.360;12.474;2024-02-21T21:37:38;5.27;;;1.87;;
8986;SDS011;4529;51.360;12.474;2024-02-21T21:42:42;3.13;;;1.90;;
8986;SDS011;4529;51.360;12.474;2024-02-21T21:47:45;4.07;;;1.80;;
8986;SDS011;4529;51.360;12.474;2024-02-21T21:52:49;4.20;;;1.80;;
8986;SDS011;4529;51.360;12.474;2024-02-21T21:57:53;2.60;;;1.73;;
8986;SDS011;4529;51.360;12.474;2024-02-21T22:02:56;3.80;;;1.47;;
8986;SDS011;4529;51.360;12.474;2024-02-21T22:08:00;2.83;;;1.67;;
8986;SDS011;4529;51.360;12.474;2024-02-21T22:13:03;2.73;;;1.87;;
8986;SDS011;4529;51.360;12.474;2024-02-21T22:18:06;4.13;;;1.60;;
8986;SDS011;4529;51.360;12.474;2024-02-21T22:23:10;2.77;;;1.50;;
8986;SDS011;4529;51.360;12.474;2024-02-21T22:28:13;2.40;;;1.53;;
8986;SDS011;4529;51.360;12.474;2024-02-21T22:33:17;2.57;;;1.43;;
8986;SDS011;4529;51.360;12.474;2024-02-21T22:38:20;2.07;;;1.50;;
8986;SDS011;4529;51.360;12.474;2024-02-21T22:43:24;3.13;;;1.70;;
8986;SDS011;4529;51.360;12.474;2024-02-21T22:48:27;2.17;;;1.47;;
8986;SDS011;4529;51.360;12.474;2024-02-21T22:53:31;4.13;;;1.67;;
8986;SDS011;4529;51.360;12.474;2024-02-21T22:58:34;3.53;;;1.50;;
8986;SDS011;4529;51.360;12.474;2024-02-21T23:03:38;1.50;;;1.40;;
8986;SDS011;4529;51.360;12.474;2024-02-21T23:08:42;2.33;;;1.70;;
8986;SDS011;4529;51.360;12.474;2024-02-21T23:13:46;1.83;;;1.43;;
8986;SDS011;4529;51.360;12.474;2024-02-21T23:18:49;2.53;;;1.47;;
8986;SDS011;4529;51.360;12.474;2024-02-21T23:23:53;2.20;;;1.60;;
8986;SDS011;4529;51.360;12.474;2024-02-21T23:28:57;2.47;;;1.40;;
8986;SDS011;4529;51.360;12.474;2024-02-21T23:34:00;1.40;;;1.30;;
8986;SDS011;4529;51.360;12.474;2024-02-21T23:39:03;1.93;;;1.40;;
8986;SDS011;4529;51.360;12.474;2024-02-21T23:44:07;1.90;;;1.40;;
8986;SDS011;4529;51.360;12.474;2024-02-21T23:49:11;2.03;;;1.20;;
8986;SDS011;4529;51.360;12.474;2024-02-21T23:54:16;2.13;;;1.47;;
8986;SDS011;4529;51.360;12.474;2024-02-21T23:59:20;1.40;;;1.30;;
